createdAt,value
2018-12-03T00:01:33.146Z,93.70
2018-12-03T00:04:33.644Z,93.70
2018-12-03T00:07:04.117Z,93.80
2018-12-03T00:09:33.405Z,93.60
2018-12-03T00:12:03.112Z,93.40
2018-12-03T00:14:32.885Z,93.60
2018-12-03T00:17:02.125Z,93.60
2018-12-03T00:19:31.400Z,93.70
2018-12-03T00:22:00.658Z,93.70
2018-12-03T00:24:29.933Z,93.90
2018-12-03T00:26:59.354Z,93.60
2018-12-03T00:29:28.657Z,93.50
2018-12-03T00:31:57.973Z,93.40
2018-12-03T00:34:28.508Z,93.70
2018-12-03T00:36:57.745Z,93.70
2018-12-03T00:39:27.105Z,93.80
2018-12-03T00:41:56.550Z,93.90
2018-12-03T00:44:26.914Z,93.90
2018-12-03T00:46:56.185Z,94.30
2018-12-03T00:49:26.108Z,93.90
2018-12-03T00:51:56.257Z,93.90
2018-12-03T00:54:25.677Z,93.80
2018-12-03T00:56:54.873Z,93.80
2018-12-03T00:59:23.984Z,93.80
2018-12-03T01:01:54.091Z,93.90
2018-12-03T01:04:23.339Z,94.00
2018-12-03T01:06:52.652Z,94.20
2018-12-03T01:09:23.281Z,94.20
2018-12-03T01:11:52.840Z,94.20
2018-12-03T01:14:22.702Z,94.30
2018-12-03T01:16:53.389Z,94.20
2018-12-03T01:19:23.856Z,94.20
2018-12-03T01:21:53.382Z,94.30
2018-12-03T01:24:22.636Z,94.30
2018-12-03T01:26:53.266Z,94.30
2018-12-03T01:29:22.578Z,94.30
2018-12-03T01:31:52.981Z,94.40
2018-12-03T01:34:20.992Z,94.30
2018-12-03T01:36:50.722Z,94.30
2018-12-03T01:39:20.968Z,94.30
2018-12-03T01:41:50.395Z,94.30
2018-12-03T01:44:19.645Z,94.30
2018-12-03T01:46:48.920Z,94.30
2018-12-03T01:49:18.148Z,94.30
2018-12-03T01:51:48.270Z,94.20
2018-12-03T01:54:18.561Z,94.40
2018-12-03T01:56:48.764Z,94.40
2018-12-03T01:59:18.143Z,94.60
2018-12-03T02:01:47.849Z,94.70
2018-12-03T02:04:17.675Z,94.80
2018-12-03T02:06:47.614Z,94.80
2018-12-03T02:09:16.832Z,94.90
2018-12-03T02:11:46.589Z,95.00
2018-12-03T02:14:16.503Z,95.00
2018-12-03T02:16:46.767Z,95.00
2018-12-03T02:19:17.401Z,95.20
2018-12-03T02:21:46.607Z,94.90
2018-12-03T02:24:15.803Z,94.90
2018-12-03T02:26:45.580Z,94.80
2018-12-03T02:29:14.863Z,94.90
2018-12-03T02:31:45.297Z,95.20
2018-12-03T02:34:15.981Z,95.00
2018-12-03T02:36:46.313Z,95.00
2018-12-03T02:39:15.462Z,95.00
2018-12-03T02:41:46.177Z,95.00
2018-12-03T02:44:15.902Z,94.90
2018-12-03T02:46:45.820Z,95.30
2018-12-03T02:49:16.616Z,94.90
2018-12-03T02:51:46.548Z,94.90
2018-12-03T02:54:16.277Z,95.00
2018-12-03T02:56:45.751Z,95.00
2018-12-03T02:59:15.971Z,95.10
2018-12-03T03:01:45.257Z,95.10
2018-12-03T03:04:14.687Z,95.10
2018-12-03T03:06:44.204Z,95.20
2018-12-03T03:09:13.470Z,95.10
2018-12-03T03:11:42.812Z,95.00
2018-12-03T03:14:12.558Z,95.00
2018-12-03T03:16:41.938Z,95.20
2018-12-03T03:19:11.363Z,95.10
2018-12-03T03:21:40.648Z,95.10
2018-12-03T03:24:10.529Z,95.10
2018-12-03T03:26:39.988Z,95.20
2018-12-03T03:29:10.010Z,95.40
2018-12-03T03:31:41.396Z,95.20
2018-12-03T03:34:10.872Z,95.20
2018-12-03T03:36:40.097Z,95.20
2018-12-03T03:39:09.552Z,95.20
2018-12-03T03:41:39.604Z,95.20
2018-12-03T03:44:09.657Z,95.20
2018-12-03T03:46:38.816Z,95.20
2018-12-03T03:49:08.045Z,95.20
2018-12-03T03:51:37.469Z,95.20
2018-12-03T03:54:06.963Z,95.20
2018-12-03T03:56:37.003Z,95.20
2018-12-03T03:59:06.660Z,95.10
2018-12-03T04:01:36.589Z,95.20
2018-12-03T04:04:07.062Z,95.60
2018-12-03T04:06:37.328Z,95.20
2018-12-03T04:09:07.607Z,95.20
2018-12-03T04:11:37.596Z,95.20
2018-12-03T04:14:06.843Z,95.20
2018-12-03T04:16:36.233Z,95.20
2018-12-03T04:19:05.642Z,95.20
2018-12-03T04:21:35.476Z,95.20
2018-12-03T04:24:05.848Z,95.10
2018-12-03T04:26:35.889Z,95.10
2018-12-03T04:29:05.990Z,95.20
2018-12-03T04:31:35.195Z,95.20
2018-12-03T04:34:05.008Z,95.10
2018-12-03T04:36:34.249Z,95.10
2018-12-03T04:39:05.171Z,95.00
2018-12-03T04:41:34.917Z,95.10
2018-12-03T04:44:04.547Z,95.00
2018-12-03T04:46:35.433Z,95.00
2018-12-03T04:49:05.376Z,95.00
2018-12-03T04:51:34.808Z,94.90
2018-12-03T04:54:04.712Z,95.00
2018-12-03T04:56:33.941Z,95.00
2018-12-03T04:59:03.269Z,94.90
2018-12-03T05:01:33.022Z,95.20
2018-12-03T05:04:03.474Z,94.90
2018-12-03T05:06:33.220Z,94.90
2018-12-03T05:09:02.513Z,94.80
2018-12-03T05:11:32.292Z,94.90
2018-12-03T05:14:01.706Z,94.90
2018-12-03T05:16:31.810Z,95.10
2018-12-03T05:19:02.505Z,95.10
2018-12-03T05:21:32.575Z,95.10
2018-12-03T05:24:04.417Z,95.10
2018-12-03T05:26:32.116Z,95.20
2018-12-03T05:29:01.471Z,95.20
2018-12-03T05:31:30.753Z,95.20
2018-12-03T05:34:00.014Z,95.10
2018-12-03T05:36:29.147Z,95.10
2018-12-03T05:38:58.447Z,95.00
2018-12-03T05:41:27.785Z,95.00
2018-12-03T05:43:57.133Z,94.80
2018-12-03T05:46:26.876Z,95.00
2018-12-03T05:48:56.212Z,94.90
2018-12-03T05:51:25.488Z,94.80
2018-12-03T05:53:56.572Z,94.80
2018-12-03T05:56:25.892Z,94.80
2018-12-03T05:58:55.794Z,94.70
2018-12-03T06:01:25.257Z,94.60
2018-12-03T06:03:54.609Z,94.50
2018-12-03T06:06:23.859Z,94.50
2018-12-03T06:08:53.545Z,94.50
2018-12-03T06:11:22.977Z,94.60
2018-12-03T06:13:52.361Z,94.40
2018-12-03T06:16:21.960Z,94.40
2018-12-03T06:18:52.408Z,94.40
2018-12-03T06:21:21.829Z,94.90
2018-12-03T06:23:51.964Z,94.60
2018-12-03T06:26:21.758Z,94.60
2018-12-03T06:28:50.939Z,95.00
2018-12-03T06:31:21.024Z,94.80
2018-12-03T06:33:50.406Z,94.90
2018-12-03T06:36:19.788Z,94.90
2018-12-03T06:38:49.685Z,95.00
2018-12-03T06:41:18.962Z,95.00
2018-12-03T06:43:48.098Z,95.10
2018-12-03T06:46:17.916Z,95.20
2018-12-03T06:48:48.251Z,95.20
2018-12-03T06:51:18.082Z,95.20
2018-12-03T06:53:48.926Z,95.20
2018-12-03T06:56:18.206Z,95.20
2018-12-03T06:58:48.146Z,95.20
2018-12-03T07:01:18.225Z,95.20
2018-12-03T07:03:47.577Z,95.10
2018-12-03T07:06:16.964Z,95.10
2018-12-03T07:08:46.317Z,95.10
2018-12-03T07:11:17.193Z,95.00
2018-12-03T07:13:47.580Z,95.00
2018-12-03T07:16:17.584Z,95.00
2018-12-03T07:18:48.356Z,95.00
2018-12-03T07:21:17.467Z,95.00
2018-12-03T07:23:46.854Z,95.00
2018-12-03T07:26:17.328Z,95.00
2018-12-03T07:28:46.565Z,95.00
2018-12-03T07:31:15.774Z,94.90
2018-12-03T07:33:45.875Z,94.70
2018-12-03T07:36:15.101Z,94.80
2018-12-03T07:38:45.844Z,94.70
2018-12-03T07:41:15.423Z,94.90
2018-12-03T07:43:44.782Z,94.90
2018-12-03T07:46:14.061Z,94.80
2018-12-03T07:48:43.336Z,94.80
2018-12-03T07:51:12.960Z,94.90
2018-12-03T07:53:42.126Z,94.70
2018-12-03T07:56:11.334Z,94.80
2018-12-03T07:58:41.046Z,94.90
2018-12-03T08:01:10.303Z,94.80
2018-12-03T08:03:40.551Z,94.80
2018-12-03T08:06:09.898Z,95.10
2018-12-03T08:08:39.296Z,95.10
2018-12-03T08:11:09.512Z,95.10
2018-12-03T08:13:38.651Z,95.20
2018-12-03T08:16:08.414Z,95.20
2018-12-03T08:18:39.048Z,95.30
2018-12-03T08:21:09.255Z,95.20
2018-12-03T08:23:47.841Z,95.20
2018-12-03T08:26:17.972Z,95.20
2018-12-03T08:28:48.054Z,95.20
2018-12-03T08:31:17.951Z,95.20
2018-12-03T08:33:48.405Z,95.20
2018-12-03T08:36:17.827Z,95.30
2018-12-03T08:38:47.147Z,95.00
2018-12-03T08:41:16.359Z,95.10
2018-12-03T08:43:46.172Z,95.20
2018-12-03T08:46:15.286Z,95.30
2018-12-03T08:48:45.375Z,95.20
2018-12-03T08:51:14.502Z,95.30
2018-12-03T08:53:47.913Z,95.30
2018-12-03T08:56:17.334Z,95.30
2018-12-03T08:58:47.677Z,95.20
2018-12-03T09:01:18.471Z,95.30
2018-12-03T09:03:53.071Z,95.20
2018-12-03T09:06:22.337Z,95.40
2018-12-03T09:08:52.238Z,95.40
2018-12-03T09:11:22.678Z,95.30
2018-12-03T09:13:52.753Z,95.40
2018-12-03T09:16:23.194Z,95.30
2018-12-03T09:18:53.282Z,95.40
2018-12-03T09:21:23.293Z,95.30
2018-12-03T09:23:54.024Z,95.40
2018-12-03T09:26:23.445Z,95.30
2018-12-03T09:28:53.131Z,95.40
2018-12-03T09:31:23.627Z,95.30
2018-12-03T09:33:58.124Z,95.20
2018-12-03T09:36:28.200Z,95.20
2018-12-03T09:39:03.018Z,95.20
2018-12-03T09:41:32.287Z,95.30
2018-12-03T09:44:02.000Z,95.20
2018-12-03T09:46:31.468Z,95.20
2018-12-03T09:49:02.658Z,95.00
2018-12-03T09:51:33.279Z,95.10
2018-12-03T09:54:04.938Z,95.10
2018-12-03T09:56:37.601Z,94.80
2018-12-03T09:59:24.143Z,95.00
2018-12-03T10:01:55.499Z,94.90
2018-12-03T10:04:29.690Z,94.70
2018-12-03T10:06:59.002Z,94.70
2018-12-03T10:09:28.406Z,94.90
2018-12-03T10:11:59.065Z,94.70
2018-12-03T10:14:28.311Z,94.80
2018-12-03T10:16:57.756Z,94.70
2018-12-03T10:19:26.864Z,95.00
2018-12-03T10:21:56.513Z,94.90
2018-12-03T10:24:25.971Z,95.00
2018-12-03T10:26:55.330Z,94.80
2018-12-03T10:29:24.497Z,94.90
2018-12-03T10:31:54.018Z,94.90
2018-12-03T10:34:23.440Z,94.90
2018-12-03T10:36:55.506Z,95.00
2018-12-03T10:39:29.738Z,94.80
2018-12-03T10:42:02.140Z,94.90
2018-12-03T10:44:32.738Z,94.80
2018-12-03T10:47:03.048Z,94.80
2018-12-03T10:49:32.342Z,95.20
2018-12-03T10:52:01.710Z,94.80
2018-12-03T10:54:37.016Z,94.80
2018-12-03T10:57:07.940Z,94.90
2018-12-03T10:59:38.227Z,95.00
2018-12-03T11:02:13.131Z,94.90
2018-12-03T11:04:44.009Z,94.90
2018-12-03T11:07:15.494Z,94.90
2018-12-03T11:09:46.200Z,94.90
2018-12-03T11:12:16.154Z,94.90
2018-12-03T11:14:46.035Z,94.90
2018-12-03T11:17:16.272Z,94.90
2018-12-03T11:19:48.344Z,94.90
2018-12-03T11:22:22.523Z,94.90
2018-12-03T11:24:51.956Z,95.10
2018-12-03T11:27:22.076Z,95.10
2018-12-03T11:29:52.602Z,95.10
2018-12-03T11:32:22.137Z,94.90
2018-12-03T11:34:51.996Z,94.90
2018-12-03T11:37:21.760Z,95.20
2018-12-03T11:39:55.971Z,94.90
2018-12-03T11:42:28.549Z,95.00
2018-12-03T11:44:58.579Z,95.00
2018-12-03T11:47:27.983Z,95.00
2018-12-03T11:49:57.436Z,95.00
2018-12-03T11:52:27.090Z,95.00
2018-12-03T11:54:56.516Z,95.00
2018-12-03T11:57:25.790Z,95.00
2018-12-03T11:59:55.128Z,95.00
2018-12-03T12:02:24.607Z,95.00
2018-12-03T12:04:54.818Z,95.00
2018-12-03T12:07:24.929Z,95.00
2018-12-03T12:09:55.213Z,95.00
2018-12-03T12:12:25.172Z,95.00
2018-12-03T12:14:55.066Z,95.00
2018-12-03T12:17:24.388Z,95.00
2018-12-03T12:19:54.271Z,94.90
2018-12-03T12:22:24.932Z,95.00
2018-12-03T12:24:54.688Z,95.10
2018-12-03T12:27:24.448Z,95.00
2018-12-03T12:29:54.464Z,95.00
2018-12-03T12:32:23.617Z,95.00
2018-12-03T12:34:52.907Z,95.10
2018-12-03T12:37:22.243Z,95.10
2018-12-03T12:39:51.510Z,95.00
2018-12-03T12:42:21.359Z,95.00
2018-12-03T12:44:50.634Z,95.00
2018-12-03T12:47:19.969Z,95.00
2018-12-03T12:49:50.926Z,95.00
2018-12-03T12:52:20.226Z,95.00
2018-12-03T12:54:50.160Z,95.30
2018-12-03T12:57:19.440Z,95.00
2018-12-03T12:59:49.369Z,95.00
2018-12-03T13:02:18.814Z,95.00
2018-12-03T13:04:49.365Z,95.10
2018-12-03T13:07:18.631Z,95.10
2018-12-03T13:09:47.843Z,95.10
2018-12-03T13:12:17.123Z,95.10
2018-12-03T13:14:47.254Z,95.10
2018-12-03T13:17:17.120Z,95.10
2018-12-03T13:19:46.502Z,95.10
2018-12-03T13:22:17.036Z,95.10
2018-12-03T13:24:47.084Z,95.10
2018-12-03T13:27:16.441Z,95.10
2018-12-03T13:29:46.636Z,95.10
2018-12-03T13:32:16.549Z,95.10
2018-12-03T13:34:45.885Z,95.20
2018-12-03T13:37:15.215Z,95.50
2018-12-03T13:39:44.730Z,95.80
2018-12-03T13:42:14.007Z,96.00
2018-12-03T13:44:44.184Z,96.00
2018-12-03T13:47:13.378Z,96.10
2018-12-03T13:49:42.758Z,96.10
2018-12-03T13:52:12.655Z,96.10
2018-12-03T13:54:42.095Z,96.10
2018-12-03T13:57:12.110Z,96.10
2018-12-03T13:59:42.243Z,96.10
2018-12-03T14:02:11.873Z,96.10
2018-12-03T14:04:41.643Z,96.10
2018-12-03T14:07:27.639Z,96.10
2018-12-03T14:10:08.902Z,96.10
2018-12-03T14:12:55.932Z,96.10
2018-12-03T14:15:38.455Z,96.20
2018-12-03T14:18:17.237Z,96.20
2018-12-03T14:20:48.763Z,96.20
2018-12-03T14:23:21.685Z,96.20
2018-12-03T14:25:51.583Z,96.20
2018-12-03T14:28:20.924Z,96.10
2018-12-03T14:30:50.819Z,96.50
2018-12-03T14:33:20.020Z,96.20
2018-12-03T14:35:49.411Z,96.20
2018-12-03T14:38:19.093Z,96.30
2018-12-03T14:40:48.946Z,96.30
2018-12-03T14:43:18.778Z,96.30
2018-12-03T14:45:48.061Z,96.30
2018-12-03T14:48:18.479Z,96.30
2018-12-03T14:50:47.739Z,96.30
2018-12-03T14:53:17.386Z,96.30
2018-12-03T14:55:47.232Z,96.30
2018-12-03T14:58:16.514Z,96.40
2018-12-03T15:00:45.849Z,96.40
2018-12-03T15:03:15.669Z,96.40
2018-12-03T15:05:44.949Z,96.40
2018-12-03T15:08:14.939Z,96.50
2018-12-03T15:10:44.347Z,96.60
2018-12-03T15:13:13.679Z,96.50
2018-12-03T15:15:43.584Z,96.60
2018-12-03T15:18:12.764Z,96.90
2018-12-03T15:20:42.538Z,96.50
2018-12-03T15:23:12.391Z,96.60
2018-12-03T15:25:43.892Z,96.60
2018-12-03T15:28:15.563Z,96.60
2018-12-03T15:30:44.120Z,96.60
2018-12-03T15:33:14.644Z,96.60
2018-12-03T15:35:43.953Z,96.60
2018-12-03T15:38:14.313Z,96.50
2018-12-03T15:40:45.094Z,96.50
2018-12-03T15:43:15.150Z,96.40
2018-12-03T15:45:44.577Z,96.40
2018-12-03T15:48:14.565Z,96.70
2018-12-03T15:50:43.895Z,96.40
2018-12-03T15:53:13.162Z,96.40
2018-12-03T15:55:42.972Z,96.40
2018-12-03T15:58:12.540Z,96.40
2018-12-03T16:00:41.667Z,96.40
2018-12-03T16:03:10.879Z,96.40
2018-12-03T16:05:40.015Z,96.40
2018-12-03T16:08:10.072Z,96.50
2018-12-03T16:10:39.859Z,96.60
2018-12-03T16:13:09.681Z,96.60
2018-12-03T16:15:38.934Z,96.60
2018-12-03T16:18:08.224Z,96.60
2018-12-03T16:20:37.634Z,96.70
2018-12-03T16:23:07.259Z,96.60
2018-12-03T16:25:37.361Z,96.60
2018-12-03T16:28:07.388Z,96.50
2018-12-03T16:30:37.420Z,96.50
2018-12-03T16:33:07.086Z,96.60
2018-12-03T16:35:37.137Z,96.40
2018-12-03T16:38:06.420Z,96.50
2018-12-03T16:40:36.459Z,96.40
2018-12-03T16:43:05.764Z,96.50
2018-12-03T16:45:35.125Z,96.30
2018-12-03T16:48:05.000Z,96.20
2018-12-03T16:50:35.178Z,96.50
2018-12-03T16:53:04.469Z,96.30
2018-12-03T16:55:33.829Z,96.20
2018-12-03T16:58:02.930Z,96.10
2018-12-03T17:00:32.448Z,96.20
2018-12-03T17:03:01.854Z,96.20
2018-12-03T17:05:30.967Z,96.10
2018-12-03T17:08:02.239Z,96.10
2018-12-03T17:10:32.338Z,96.10
2018-12-03T17:13:01.662Z,96.10
2018-12-03T17:15:30.986Z,96.00
2018-12-03T17:18:00.143Z,96.20
2018-12-03T17:20:49.115Z,96.20
2018-12-03T17:23:32.827Z,96.10
2018-12-03T17:26:02.204Z,95.90
2018-12-03T17:28:31.642Z,96.00
2018-12-03T17:31:01.247Z,96.00
2018-12-03T17:33:30.590Z,96.00
2018-12-03T17:36:00.639Z,96.00
2018-12-03T17:38:30.026Z,96.00
2018-12-03T17:40:59.978Z,96.10
2018-12-03T17:43:29.304Z,96.20
2018-12-03T17:45:58.500Z,96.20
2018-12-03T17:48:28.471Z,96.20
2018-12-03T17:50:58.132Z,96.20
2018-12-03T17:53:27.442Z,96.10
2018-12-03T17:55:56.876Z,96.10
2018-12-03T17:58:27.396Z,96.00
2018-12-03T18:00:57.035Z,96.00
2018-12-03T18:03:30.086Z,96.10
2018-12-03T18:05:58.261Z,96.20
2018-12-03T18:08:27.516Z,96.20
2018-12-03T18:10:57.608Z,96.20
2018-12-03T18:13:28.064Z,96.20
2018-12-03T18:15:57.788Z,96.30
2018-12-03T18:18:29.082Z,96.20
2018-12-03T18:20:59.037Z,96.20
2018-12-03T18:23:28.541Z,96.30
2018-12-03T18:25:58.160Z,96.30
2018-12-03T18:28:28.478Z,96.30
2018-12-03T18:30:58.422Z,96.10
2018-12-03T18:33:28.344Z,96.00
2018-12-03T18:35:58.101Z,96.20
2018-12-03T18:38:27.416Z,96.10
2018-12-03T18:40:56.614Z,96.00
2018-12-03T18:43:25.868Z,96.00
2018-12-03T18:45:55.272Z,96.10
2018-12-03T18:48:24.704Z,96.00
2018-12-03T18:50:55.111Z,96.00
2018-12-03T18:53:26.677Z,95.90
2018-12-03T18:55:55.940Z,95.80
2018-12-03T18:58:35.287Z,96.00
2018-12-03T19:01:04.045Z,95.90
2018-12-03T19:03:34.289Z,96.00
2018-12-03T19:06:04.544Z,95.90
2018-12-03T19:08:34.009Z,96.10
2018-12-03T19:11:05.081Z,96.50
2018-12-03T19:13:35.083Z,96.00
2018-12-03T19:16:04.248Z,95.90
2018-12-03T19:18:33.365Z,95.90
2018-12-03T19:21:02.965Z,96.20
2018-12-03T19:23:33.963Z,96.30
2018-12-03T19:26:03.241Z,96.10
2018-12-03T19:28:33.030Z,95.90
2018-12-03T19:31:02.433Z,95.90
2018-12-03T19:33:32.354Z,95.90
2018-12-03T19:36:02.225Z,95.90
2018-12-03T19:38:31.429Z,95.80
2018-12-03T19:41:00.698Z,95.80
2018-12-03T19:43:29.974Z,95.70
2018-12-03T19:45:59.418Z,95.80
2018-12-03T19:48:28.820Z,96.10
2018-12-03T19:50:58.906Z,95.90
2018-12-03T19:53:28.728Z,95.70
2018-12-03T19:55:57.955Z,95.80
2018-12-03T19:58:30.378Z,95.70
2018-12-03T20:01:00.096Z,95.80
2018-12-03T20:03:29.254Z,95.80
2018-12-03T20:05:59.533Z,95.70
2018-12-03T20:08:29.947Z,95.70
2018-12-03T20:11:00.531Z,95.80
2018-12-03T20:13:29.761Z,95.80
2018-12-03T20:15:58.930Z,95.70
2018-12-03T20:18:28.092Z,95.70
2018-12-03T20:21:03.510Z,95.60
2018-12-03T20:23:38.720Z,95.80
2018-12-03T20:26:27.965Z,95.90
2018-12-03T20:29:04.247Z,96.10
2018-12-03T20:31:56.682Z,96.20
2018-12-03T20:34:39.006Z,96.50
2018-12-03T20:37:33.766Z,96.60
2018-12-03T20:40:24.151Z,96.80
2018-12-03T20:43:06.710Z,96.90
2018-12-03T20:45:57.122Z,97.00
2018-12-03T20:48:42.429Z,97.10
2018-12-03T20:51:47.640Z,97.10
2018-12-03T20:54:17.487Z,97.20
2018-12-03T20:56:46.759Z,97.20
2018-12-03T20:59:16.794Z,97.20
2018-12-03T21:01:47.999Z,97.20
2018-12-03T21:04:21.660Z,97.10
2018-12-03T21:06:51.779Z,97.10
2018-12-03T21:09:20.965Z,97.00
2018-12-03T21:11:50.287Z,96.90
2018-12-03T21:14:20.228Z,96.80
2018-12-03T21:16:48.917Z,96.40
2018-12-03T21:19:18.108Z,96.40
2018-12-03T21:21:47.320Z,96.40
2018-12-03T21:24:17.080Z,96.40
2018-12-03T21:26:46.267Z,96.30
2018-12-03T21:29:16.580Z,96.00
2018-12-03T21:31:46.138Z,95.70
2018-12-03T21:34:45.689Z,95.90
2018-12-03T21:37:13.768Z,95.70
2018-12-03T21:39:41.828Z,96.00
2018-12-03T21:42:09.900Z,95.70
2018-12-03T21:44:37.951Z,95.60
2018-12-03T21:47:06.042Z,95.90
2018-12-03T21:49:34.410Z,95.50
2018-12-03T21:52:02.474Z,95.60
2018-12-03T21:54:30.548Z,95.60
2018-12-03T21:56:58.630Z,95.80
2018-12-03T21:59:26.702Z,95.50
2018-12-03T22:01:54.792Z,95.60
2018-12-03T22:04:22.842Z,95.50
2018-12-03T22:06:50.934Z,95.50
2018-12-03T22:09:19.016Z,95.50
2018-12-03T22:11:47.108Z,95.50
2018-12-03T22:14:15.182Z,95.50
2018-12-03T22:16:43.242Z,95.50
2018-12-03T22:19:11.311Z,95.50
2018-12-03T22:21:39.388Z,95.80
2018-12-03T22:24:07.797Z,95.40
2018-12-03T22:26:35.876Z,95.10
2018-12-03T22:29:03.944Z,95.10
2018-12-03T22:31:32.249Z,95.00
2018-12-03T22:34:00.335Z,94.90
2018-12-03T22:36:28.401Z,94.70
2018-12-03T22:38:56.480Z,94.70
2018-12-03T22:41:24.565Z,94.40
2018-12-03T22:43:52.642Z,94.30
2018-12-03T22:46:20.716Z,94.00
2018-12-03T22:48:48.797Z,94.20
2018-12-03T22:51:16.874Z,93.40
2018-12-03T22:53:44.977Z,93.50
2018-12-03T22:56:13.069Z,93.50
2018-12-03T22:58:41.155Z,93.40
2018-12-03T23:01:09.334Z,93.50
2018-12-03T23:03:37.410Z,93.80
2018-12-03T23:06:05.503Z,93.50
2018-12-03T23:08:33.588Z,93.60
2018-12-03T23:11:01.669Z,93.80
2018-12-03T23:13:29.740Z,94.00
2018-12-03T23:15:57.815Z,94.10
2018-12-03T23:18:25.873Z,94.30
2018-12-03T23:20:54.043Z,94.40
2018-12-03T23:23:22.093Z,94.50
2018-12-03T23:25:50.172Z,94.60
2018-12-03T23:28:18.893Z,94.70
2018-12-03T23:30:46.972Z,94.60
2018-12-03T23:33:15.047Z,94.70
2018-12-03T23:35:43.112Z,94.70
2018-12-03T23:38:11.198Z,94.70
2018-12-03T23:40:39.278Z,94.50
2018-12-03T23:43:07.345Z,94.40
2018-12-03T23:45:35.442Z,94.40
2018-12-03T23:48:03.496Z,94.10
2018-12-03T23:50:31.580Z,94.20
2018-12-03T23:52:59.643Z,93.90
2018-12-03T23:55:27.715Z,93.80
2018-12-03T23:57:55.795Z,93.70
